Time;durP1;ratioP1;P1;durP2;ratioP2;P2;SDS_P1;SDS_P2;PMS_P1;PMS_P2;Temp;Humidity;BMP_temperature;BMP_pressure;BME280_temperature;BME280_humidity;BME280_pressure;Samples;Min_cycle;Max_cycle;Signal;HPM_P1;HPM_P2
2022/01/18 00:01:30;;;;;;;2.97;2.78;;;17.70;41.90;;;;;;5074103;28;20244;-68
2022/01/18 00:03:57;;;;;;;3.13;2.83;;;17.70;42.00;;;;;;5074443;28;20209;-67
2022/01/18 00:06:24;;;;;;;2.65;2.45;;;17.60;41.90;;;;;;5074338;28;20194;-65
2022/01/18 00:08:51;;;;;;;2.90;2.70;;;17.70;42.10;;;;;;5074919;28;20765;-67
2022/01/18 00:11:21;;;;;;;3.25;2.95;;;17.70;42.10;;;;;;5078985;28;20249;-69
2022/01/18 00:13:57;;;;;;;3.03;2.83;;;17.70;42.10;;;;;;5077939;28;20194;-69
2022/01/18 00:16:29;;;;;;;2.90;2.70;;;17.60;42.00;;;;;;5078384;28;20189;-68
2022/01/18 00:18:59;;;;;;;2.90;2.70;;;17.60;42.00;;;;;;5077985;28;20216;-67
2022/01/18 00:21:51;;;;;;;2.65;2.45;;;17.60;42.00;;;;;;5077890;28;20247;-67
2022/01/18 00:24:18;;;;;;;2.90;2.70;;;17.50;42.00;;;;;;5095876;28;20182;-67
2022/01/18 00:26:45;;;;;;;3.03;2.83;;;17.50;42.10;;;;;;5095776;28;20236;-68
2022/01/18 00:29:16;;;;;;;2.83;2.63;;;17.50;42.10;;;;;;5077436;28;20213;-68
2022/01/18 00:32:00;;;;;;;2.90;2.70;;;17.50;42.10;;;;;;5095456;28;20679;-69
2022/01/18 00:34:30;;;;;;;2.63;2.42;;;17.50;42.20;;;;;;5077292;28;20222;-67
2022/01/18 00:37:12;;;;;;;2.90;2.70;;;17.50;42.20;;;;;;5077087;28;20289;-67
2022/01/18 00:39:41;;;;;;;3.00;2.80;;;17.40;42.20;;;;;;5077145;28;20225;-67
2022/01/18 00:42:08;;;;;;;3.20;3.00;;;17.40;42.20;;;;;;5076986;28;20194;-67
2022/01/18 00:44:36;;;;;;;3.10;2.90;;;17.40;42.20;;;;;;5094966;28;20628;-65
2022/01/18 00:47:05;;;;;;;2.90;2.70;;;17.40;42.30;;;;;;5095092;28;20194;-69
2022/01/18 00:49:39;;;;;;;2.78;2.58;;;17.40;42.40;;;;;;5094990;28;20701;-69
2022/01/18 00:52:07;;;;;;;3.70;2.83;;;17.30;42.30;;;;;;5076640;28;20575;-67
2022/01/18 00:54:39;;;;;;;2.90;2.70;;;17.30;42.30;;;;;;5076537;28;20293;-68
2022/01/18 00:57:07;;;;;;;2.80;2.60;;;17.30;42.50;;;;;;5076481;28;20186;-65
2022/01/18 00:59:34;;;;;;;2.90;2.70;;;17.30;42.50;;;;;;5076443;28;20296;-69
2022/01/18 01:02:01;;;;;;;2.78;2.58;;;17.30;42.50;;;;;;5076574;28;20239;-68
2022/01/18 01:04:34;;;;;;;2.40;2.30;;;17.30;42.50;;;;;;5094690;28;20674;-67
2022/01/18 01:07:01;;;;;;;2.83;2.63;;;17.20;42.50;;;;;;5076503;28;20543;-67
2022/01/18 01:09:28;;;;;;;3.10;2.90;;;17.20;42.50;;;;;;5076473;28;20326;-66
2022/01/18 01:11:55;;;;;;;2.88;2.67;;;17.20;42.60;;;;;;5076176;28;20217;-69
2022/01/18 01:14:25;;;;;;;2.80;2.60;;;17.20;42.60;;;;;;5094643;28;20583;-67
2022/01/18 01:17:00;;;;;;;2.90;2.70;;;17.20;42.60;;;;;;5094311;28;20235;-68
2022/01/18 01:19:53;;;;;;;3.00;2.80;;;17.20;42.60;;;;;;5076138;28;20217;-69
2022/01/18 01:36:17;;;;;;;2.75;2.55;;;17.10;42.70;;;;;;5068871;28;20239;-68
2022/01/18 01:41:50;;;;;;;3.00;2.80;;;17.10;42.80;;;;;;5075986;28;20178;-66
2022/01/18 01:44:25;;;;;;;3.10;2.90;;;17.10;42.80;;;;;;5075878;28;20193;-66
2022/01/18 01:46:52;;;;;;;3.05;2.85;;;17.10;42.80;;;;;;5077124;28;20281;-69
2022/01/18 01:49:22;;;;;;;2.78;2.58;;;17.10;42.80;;;;;;5075529;28;20210;-68
2022/01/18 01:51:50;;;;;;;2.83;2.63;;;17.00;42.80;;;;;;5075301;28;20682;-67
2022/01/18 01:54:17;;;;;;;2.83;2.63;;;17.00;42.80;;;;;;5075417;28;20284;-68
2022/01/18 01:56:45;;;;;;;2.88;2.67;;;17.00;42.80;;;;;;5075400;28;20194;-69
2022/01/18 01:59:12;;;;;;;2.67;2.47;;;17.00;42.90;;;;;;5075313;28;20271;-69
2022/01/18 02:01:40;;;;;;;2.95;2.75;;;17.00;43.00;;;;;;5075397;28;20609;-68
2022/01/18 02:04:07;;;;;;;2.67;2.47;;;17.00;43.00;;;;;;5075610;28;20198;-68
2022/01/18 02:06:34;;;;;;;2.85;2.65;;;17.00;43.00;;;;;;5075419;28;20229;-69
2022/01/18 02:09:03;;;;;;;2.72;2.58;;;17.00;43.00;;;;;;5093438;28;20713;-68
2022/01/18 02:11:30;;;;;;;3.00;2.70;;;16.90;42.90;;;;;;5075213;28;20226;-68
2022/01/18 02:13:58;;;;;;;3.10;2.80;;;16.90;43.00;;;;;;5075391;28;20202;-69
2022/01/18 02:21:55;;;;;;;2.95;2.75;;;16.90;43.20;;;;;;5075216;28;20186;-68
2022/01/18 02:24:23;;;;;;;3.10;2.90;;;16.90;43.80;;;;;;5075009;28;20213;-67
2022/01/18 02:26:50;;;;;;;3.00;2.80;;;16.90;43.80;;;;;;5093004;28;20273;-68
2022/01/18 02:29:17;;;;;;;2.90;2.70;;;16.80;43.20;;;;;;5074705;28;20214;-68
2022/01/18 02:31:45;;;;;;;3.45;3.15;;;16.80;43.20;;;;;;5074472;28;20237;-67
2022/01/18 02:34:12;;;;;;;3.08;2.80;;;16.90;43.30;;;;;;5074405;28;20252;-70
2022/01/18 02:36:40;;;;;;;3.03;2.75;;;16.80;43.30;;;;;;5074778;28;20292;-70
2022/01/18 02:39:08;;;;;;;2.90;2.70;;;16.80;43.20;;;;;;5074627;28;20232;-68
2022/01/18 02:41:36;;;;;;;2.90;2.70;;;16.80;43.30;;;;;;5092919;28;20182;-68
2022/01/18 02:44:04;;;;;;;3.05;2.80;;;16.80;43.30;;;;;;5092794;28;20243;-69
2022/01/18 02:46:31;;;;;;;3.17;2.90;;;16.80;43.20;;;;;;5074696;28;20680;-67
2022/01/18 02:48:59;;;;;;;3.10;2.90;;;16.80;43.20;;;;;;5092303;28;20241;-68
2022/01/18 02:51:26;;;;;;;2.92;2.72;;;16.80;43.20;;;;;;5074614;28;20580;-67
2022/01/18 02:53:57;;;;;;;3.03;2.83;;;16.80;43.20;;;;;;5074598;28;20194;-70
2022/01/18 02:56:26;;;;;;;2.80;2.60;;;16.70;43.20;;;;;;5074844;28;20186;-69
2022/01/18 02:59:05;;;;;;;2.90;2.70;;;16.70;43.20;;;;;;5074764;28;20228;-68
2022/01/18 03:04:17;;;;;;;2.85;2.60;;;16.70;43.20;;;;;;5075390;28;20665;-70
2022/01/18 03:06:43;;;;;;;3.03;2.83;;;16.70;43.20;;;;;;5075111;28;20638;-68
2022/01/18 03:09:11;;;;;;;3.22;3.00;;;16.70;43.30;;;;;;5074548;28;20214;-69
2022/01/18 03:11:39;;;;;;;3.65;2.97;;;16.70;43.40;;;;;;5074844;28;20586;-68
2022/01/18 03:14:06;;;;;;;3.75;3.00;;;16.70;43.40;;;;;;5074456;28;20225;-69
2022/01/18 03:16:33;;;;;;;2.92;2.72;;;16.70;43.30;;;;;;5092695;28;20196;-68
2022/01/18 03:19:01;;;;;;;2.70;2.50;;;16.70;43.40;;;;;;5074410;28;20232;-67
2022/01/18 03:21:28;;;;;;;3.10;2.90;;;16.70;43.40;;;;;;5074331;28;20593;-69
2022/01/18 03:24:11;;;;;;;3.17;2.88;;;16.70;43.40;;;;;;5074359;28;20198;-68
2022/01/18 03:28:04;;;;;;;2.80;2.60;;;16.60;43.20;;;;;;5092516;28;20197;-68
2022/01/18 03:29:27;;;;;;;2.90;2.70;;;16.60;43.30;;;;;;5074295;28;20216;-68
2022/01/18 03:31:55;;;;;;;3.00;2.80;;;16.60;43.30;;;;;;5074211;28;20216;-68
2022/01/18 03:34:22;;;;;;;3.10;2.90;;;16.60;43.30;;;;;;5092471;28;20621;-70
2022/01/18 03:36:50;;;;;;;2.70;2.50;;;16.60;43.30;;;;;;5092313;28;20194;-67
2022/01/18 03:39:17;;;;;;;3.20;2.90;;;16.60;43.40;;;;;;5074054;28;20218;-66
2022/01/18 03:41:52;;;;;;;2.80;2.60;;;16.60;43.30;;;;;;5074118;28;20225;-70
2022/01/18 03:44:19;;;;;;;3.00;2.80;;;16.60;43.40;;;;;;5076255;28;20275;-68
2022/01/18 03:46:47;;;;;;;2.80;2.60;;;16.60;43.40;;;;;;5077889;28;20233;-70
2022/01/18 03:49:14;;;;;;;3.00;2.80;;;16.60;43.40;;;;;;5077968;28;20801;-69
2022/01/18 03:51:41;;;;;;;3.03;2.83;;;16.60;43.40;;;;;;5077650;28;20293;-67
2022/01/18 03:54:08;;;;;;;3.15;2.95;;;16.50;43.40;;;;;;5095895;28;20182;-70
2022/01/18 03:56:35;;;;;;;3.30;3.10;;;16.60;43.40;;;;;;5095844;28;20269;-70
2022/01/18 03:59:04;;;;;;;2.75;2.58;;;16.50;43.30;;;;;;5077576;28;20214;-68
2022/01/18 04:01:31;;;;;;;3.20;3.00;;;16.50;43.40;;;;;;5095913;28;20269;-68
2022/01/18 04:03:59;;;;;;;2.90;2.70;;;16.50;43.40;;;;;;5077891;28;20294;-70
2022/01/18 04:06:27;;;;;;;2.70;2.53;;;16.50;43.50;;;;;;5077753;28;20202;-68
2022/01/18 04:08:54;;;;;;;2.90;2.70;;;16.50;43.50;;;;;;5095637;28;20625;-66
2022/01/18 04:11:21;;;;;;;3.17;2.97;;;16.50;43.50;;;;;;5077585;28;20273;-69
2022/01/18 04:13:48;;;;;;;3.17;2.97;;;16.50;43.60;;;;;;5077443;28;20719;-70
2022/01/18 04:16:17;;;;;;;3.13;2.92;;;16.50;43.60;;;;;;5077287;28;20281;-68
2022/01/18 04:18:54;;;;;;;3.70;3.10;;;16.50;43.60;;;;;;5077488;28;20240;-68
2022/01/18 04:26:56;;;;;;;3.42;3.13;;;16.50;43.60;;;;;;5079146;28;20206;-68
2022/01/18 04:29:24;;;;;;;3.03;2.83;;;16.50;43.50;;;;;;5097025;28;20297;-70
2022/01/18 04:31:53;;;;;;;3.22;2.97;;;16.50;43.50;;;;;;5077006;28;20666;-68
2022/01/18 04:34:20;;;;;;;3.13;2.92;;;16.50;43.40;;;;;;5076847;28;20190;-68
2022/01/18 04:36:48;;;;;;;3.10;2.90;;;16.50;43.40;;;;;;5076582;28;20208;-70
2022/01/18 04:39:16;;;;;;;3.03;2.75;;;16.60;43.40;;;;;;5076762;28;20715;-70
2022/01/18 04:41:45;;;;;;;3.22;3.03;;;16.60;43.30;;;;;;5076694;28;20198;-68
2022/01/18 04:49:38;;;;;;;3.55;3.28;;;16.60;43.10;;;;;;5076670;28;20241;-68
2022/01/18 04:52:06;;;;;;;3.53;3.22;;;16.70;43.20;;;;;;5077090;28;20238;-69
2022/01/18 04:54:34;;;;;;;3.42;3.13;;;16.70;43.20;;;;;;5094684;28;20198;-69
2022/01/18 04:59:47;;;;;;;3.53;3.22;;;16.70;43.20;;;;;;5059380;28;20731;-66
2022/01/18 05:02:16;;;;;;;3.03;2.83;;;16.70;43.20;;;;;;5094769;28;20205;-69
2022/01/18 05:04:43;;;;;;;3.63;3.33;;;16.70;43.70;;;;;;5076469;28;20201;-68
2022/01/18 05:07:13;;;;;;;3.35;3.15;;;16.70;43.20;;;;;;5076541;28;20231;-66
2022/01/18 05:09:42;;;;;;;2.80;2.60;;;16.70;43.10;;;;;;5076404;28;20239;-68
2022/01/18 05:12:16;;;;;;;2.80;2.60;;;16.80;43.20;;;;;;5094457;28;20205;-66
2022/01/18 05:14:45;;;;;;;2.97;2.75;;;16.80;43.20;;;;;;5076292;28;20201;-68
2022/01/18 05:17:32;;;;;;;2.95;2.75;;;16.80;43.10;;;;;;5076443;28;20224;-67
2022/01/18 05:20:24;;;;;;;3.60;3.30;;;16.80;43.10;;;;;;5094326;28;20216;-68
2022/01/18 05:22:59;;;;;;;3.08;2.88;;;16.80;43.10;;;;;;5094288;28;20280;-68
2022/01/18 05:25:28;;;;;;;3.10;2.90;;;16.80;43.00;;;;;;5076274;28;20181;-69
2022/01/18 05:27:56;;;;;;;2.92;2.72;;;16.80;42.90;;;;;;5075991;28;20202;-69
2022/01/18 05:30:24;;;;;;;2.80;2.60;;;16.80;43.00;;;;;;5076351;28;20194;-69
2022/01/18 05:32:51;;;;;;;2.88;2.67;;;16.80;42.90;;;;;;5094439;28;20209;-67
2022/01/18 05:35:20;;;;;;;3.13;2.92;;;16.80;42.80;;;;;;5076616;28;20658;-69
2022/01/18 05:37:47;;;;;;;3.42;3.05;;;16.90;42.80;;;;;;5076573;28;20222;-69
2022/01/18 05:40:14;;;;;;;3.35;3.10;;;16.90;42.80;;;;;;5076473;28;20202;-68
2022/01/18 05:42:41;;;;;;;3.45;3.15;;;16.90;43.00;;;;;;5076679;28;20189;-68
2022/01/18 05:45:10;;;;;;;3.80;3.50;;;16.90;43.00;;;;;;5076727;28;20261;-70
2022/01/18 05:47:37;;;;;;;3.80;3.40;;;16.90;43.20;;;;;;5076948;28;20659;-69
2022/01/18 05:50:04;;;;;;;4.60;4.20;;;17.00;43.20;;;;;;5095175;28;20217;-67
2022/01/18 05:52:32;;;;;;;3.33;3.03;;;17.00;43.40;;;;;;5086783;28;20214;-67
2022/01/18 05:55:00;;;;;;;3.10;2.90;;;17.00;43.50;;;;;;5094941;28;20198;-69
2022/01/18 05:57:27;;;;;;;2.92;2.72;;;17.10;43.50;;;;;;5088277;28;20754;-69
2022/01/18 06:00:01;;;;;;;3.60;3.30;;;17.10;43.30;;;;;;5077850;28;20643;-69
2022/01/18 06:02:44;;;;;;;4.25;3.90;;;17.10;43.20;;;;;;5095713;28;20174;-68
2022/01/18 06:07:57;;;;;;;3.33;3.03;;;17.20;43.10;;;;;;5076425;28;20269;-70
2022/01/18 06:10:24;;;;;;;3.53;3.22;;;17.20;43.30;;;;;;5094654;28;20190;-69
2022/01/18 06:12:51;;;;;;;3.38;3.13;;;17.20;43.10;;;;;;5076248;28;20213;-68
2022/01/18 06:15:18;;;;;;;3.55;3.25;;;17.30;43.00;;;;;;5076101;28;20198;-68
2022/01/18 06:17:45;;;;;;;3.53;3.25;;;17.30;42.80;;;;;;5075904;28;20748;-69
2022/01/18 06:20:12;;;;;;;3.22;3.03;;;17.30;42.90;;;;;;5075643;28;20280;-67
2022/01/18 06:22:40;;;;;;;3.60;3.30;;;17.30;42.70;;;;;;5075852;28;20201;-67
2022/01/18 06:25:09;;;;;;;3.80;3.50;;;17.30;42.70;;;;;;5075549;28;20198;-69
2022/01/18 06:27:36;;;;;;;3.30;3.10;;;17.40;42.50;;;;;;5093439;28;20263;-69
2022/01/18 06:30:05;;;;;;;4.38;3.97;;;17.30;42.50;;;;;;5075074;28;20214;-68
2022/01/18 06:32:32;;;;;;;5.28;4.72;;;17.30;42.50;;;;;;5075404;28;20461;-69
2022/01/18 06:34:59;;;;;;;5.10;4.35;;;17.30;42.30;;;;;;5075445;28;20217;-66
2022/01/18 06:37:26;;;;;;;4.50;4.10;;;17.30;42.50;;;;;;5075877;28;20243;-68
2022/01/18 06:39:53;;;;;;;4.97;4.47;;;17.40;42.40;;;;;;5075582;28;20245;-67
2022/01/18 06:42:24;;;;;;;4.60;4.20;;;17.30;42.30;;;;;;5093576;28;20190;-68
2022/01/18 06:44:51;;;;;;;5.03;4.60;;;17.40;42.30;;;;;;5093399;28;20180;-69
2022/01/18 06:47:18;;;;;;;3.88;3.58;;;17.40;42.20;;;;;;5075288;28;20198;-70
2022/01/18 06:49:45;;;;;;;5.28;4.78;;;17.30;42.20;;;;;;5093507;28;20206;-69
2022/01/18 06:52:12;;;;;;;5.35;4.85;;;17.40;42.80;;;;;;5075577;28;20198;-67
2022/01/18 06:54:40;;;;;;;5.78;5.18;;;17.40;42.10;;;;;;5092890;28;20221;-70
2022/01/18 06:57:07;;;;;;;6.25;5.50;;;17.40;41.90;;;;;;5074933;28;20193;-69
2022/01/18 06:59:35;;;;;;;5.50;4.95;;;17.40;41.90;;;;;;5093171;28;20218;-68
2022/01/18 07:02:03;;;;;;;5.85;5.25;;;17.40;41.90;;;;;;5075221;28;20319;-67
2022/01/18 07:04:30;;;;;;;5.25;4.75;;;17.40;41.80;;;;;;5074757;28;20556;-70
2022/01/18 07:06:57;;;;;;;5.07;4.60;;;17.40;41.90;;;;;;5074847;28;20220;-70
2022/01/18 07:09:25;;;;;;;5.30;4.80;;;17.40;41.90;;;;;;5093028;28;20209;-68
2022/01/18 07:11:52;;;;;;;4.70;4.30;;;17.40;41.80;;;;;;5074668;28;20198;-69
2022/01/18 07:14:20;;;;;;;7.82;6.00;;;17.40;41.80;;;;;;5074876;28;20650;-70
2022/01/18 07:16:48;;;;;;;6.35;5.65;;;17.40;41.80;;;;;;5074749;28;20658;-70
2022/01/18 07:19:15;;;;;;;5.63;5.10;;;17.40;41.90;;;;;;5076253;28;20605;-69
2022/01/18 07:21:43;;;;;;;5.75;5.15;;;17.40;41.80;;;;;;5079006;28;20198;-68
2022/01/18 07:24:17;;;;;;;5.57;5.00;;;17.50;41.90;;;;;;5078801;28;20730;-69
2022/01/18 07:26:46;;;;;;;5.35;4.85;;;17.50;41.80;;;;;;5096761;28;20253;-68
2022/01/18 07:29:13;;;;;;;5.15;4.68;;;17.40;41.70;;;;;;5078346;28;20220;-70
2022/01/18 07:31:40;;;;;;;6.30;5.22;;;17.50;41.80;;;;;;5078490;28;20208;-70
2022/01/18 07:34:09;;;;;;;5.90;4.60;;;17.50;41.70;;;;;;5078547;28;20716;-68
2022/01/18 07:36:36;;;;;;;4.43;4.03;;;17.50;41.50;;;;;;5096597;28;20538;-67
2022/01/18 07:39:04;;;;;;;4.97;4.57;;;17.50;41.50;;;;;;5078570;28;20213;-70
2022/01/18 07:41:31;;;;;;;4.53;4.13;;;17.50;41.50;;;;;;5096313;28;20269;-68
2022/01/18 07:43:58;;;;;;;4.85;4.40;;;17.50;41.50;;;;;;5078290;28;20189;-68
2022/01/18 07:46:25;;;;;;;4.70;4.30;;;17.50;41.40;;;;;;5079876;28;20293;-66
2022/01/18 07:48:52;;;;;;;4.72;4.32;;;17.60;41.40;;;;;;5077948;28;20727;-70
2022/01/18 07:51:20;;;;;;;4.53;4.13;;;17.60;41.40;;;;;;5077908;28;20198;-66
2022/01/18 07:53:48;;;;;;;4.90;4.40;;;17.60;41.40;;;;;;5077944;28;20213;-66
2022/01/18 07:56:15;;;;;;;4.80;4.35;;;17.60;41.30;;;;;;5096255;28;20209;-70
2022/01/18 07:58:42;;;;;;;4.97;4.57;;;17.60;41.20;;;;;;5077807;28;20564;-69
2022/01/18 08:01:09;;;;;;;4.40;4.00;;;17.70;41.30;;;;;;5096308;28;20187;-68
2022/01/18 08:03:36;;;;;;;4.75;4.35;;;17.70;41.20;;;;;;5078066;28;20288;-66
2022/01/18 08:06:03;;;;;;;5.15;3.83;;;17.70;41.20;;;;;;5077706;28;20557;-70
2022/01/18 08:08:32;;;;;;;5.03;4.50;;;17.70;41.20;;;;;;5077892;28;20218;-67
2022/01/18 08:11:00;;;;;;;4.70;4.20;;;17.70;41.10;;;;;;5077731;28;20202;-68
2022/01/18 08:13:36;;;;;;;5.05;4.55;;;17.70;41.10;;;;;;5077789;28;20272;-68
2022/01/18 08:16:22;;;;;;;5.32;4.63;;;17.80;41.10;;;;;;5077561;28;20677;-68
2022/01/18 08:18:49;;;;;;;5.38;4.68;;;17.80;41.00;;;;;;5077742;28;20214;-70
2022/01/18 08:21:16;;;;;;;6.38;5.78;;;17.80;41.00;;;;;;5077581;28;20665;-69
2022/01/18 08:23:45;;;;;;;4.97;4.47;;;17.80;41.00;;;;;;5077547;28;20201;-67
2022/01/18 08:26:12;;;;;;;5.68;5.07;;;17.90;41.10;;;;;;5077654;28;20623;-67
2022/01/18 08:28:39;;;;;;;6.05;5.00;;;17.80;40.90;;;;;;5096011;28;20217;-68
2022/01/18 08:31:06;;;;;;;5.50;5.00;;;17.80;41.00;;;;;;5077700;28;20285;-67
2022/01/18 08:33:33;;;;;;;5.45;5.03;;;17.80;40.90;;;;;;5095543;28;20575;-69
2022/01/18 08:36:03;;;;;;;6.38;5.78;;;17.90;41.00;;;;;;5096262;28;20583;-70
2022/01/18 08:38:30;;;;;;;6.20;5.60;;;17.90;41.00;;;;;;5077572;28;20613;-69
2022/01/18 08:40:59;;;;;;;6.38;5.75;;;17.90;40.90;;;;;;5078198;28;20205;-70
2022/01/18 08:43:26;;;;;;;5.43;4.93;;;17.90;40.90;;;;;;5078125;28;20202;-70
2022/01/18 08:45:54;;;;;;;6.85;5.82;;;17.90;40.80;;;;;;5077052;28;20239;-68
2022/01/18 08:48:21;;;;;;;5.93;5.32;;;17.90;40.80;;;;;;5077126;28;20694;-69
2022/01/18 08:50:48;;;;;;;6.25;5.72;;;17.90;40.80;;;;;;5077294;28;20654;-68
2022/01/18 08:53:15;;;;;;;7.25;6.43;;;18.00;40.80;;;;;;5077165;28;20567;-66
2022/01/18 08:55:43;;;;;;;5.70;5.18;;;18.00;40.60;;;;;;5095207;28;20277;-69
2022/01/18 08:58:11;;;;;;;6.50;5.90;;;18.10;40.70;;;;;;5094923;28;20212;-68
2022/01/18 09:00:38;;;;;;;6.07;5.45;;;18.10;40.50;;;;;;5076966;28;20213;-67
2022/01/18 09:03:05;;;;;;;5.70;5.18;;;18.20;40.50;;;;;;5076788;28;20190;-70
2022/01/18 09:05:32;;;;;;;6.55;5.93;;;18.20;40.40;;;;;;5094572;28;20514;-70
2022/01/18 09:08:04;;;;;;;5.68;5.10;;;18.30;40.50;;;;;;5076335;28;20206;-68
2022/01/18 09:10:31;;;;;;;7.70;6.18;;;18.20;40.30;;;;;;5077027;28;20260;-71
2022/01/18 09:12:59;;;;;;;7.53;6.68;;;18.20;40.20;;;;;;5094482;28;20198;-68
2022/01/18 09:15:27;;;;;;;7.05;6.35;;;18.30;40.30;;;;;;5076097;28;20221;-67
2022/01/18 09:17:54;;;;;;;5.85;5.35;;;18.30;40.30;;;;;;5076428;28;20729;-70
2022/01/18 09:20:23;;;;;;;6.03;5.43;;;18.30;40.20;;;;;;5076031;28;20235;-70
2022/01/18 09:22:50;;;;;;;6.63;5.97;;;18.30;40.20;;;;;;5076062;28;20293;-67
2022/01/18 09:25:19;;;;;;;6.43;5.82;;;18.30;40.10;;;;;;5076210;28;20238;-68
2022/01/18 09:27:46;;;;;;;5.57;5.07;;;18.40;40.30;;;;;;5075734;28;20202;-69
2022/01/18 09:30:14;;;;;;;6.57;5.47;;;18.40;40.10;;;;;;5075867;28;20264;-70
2022/01/18 09:32:43;;;;;;;6.55;5.65;;;18.40;40.00;;;;;;5093940;28;20197;-68
2022/01/18 09:35:11;;;;;;;6.45;5.45;;;18.40;40.00;;;;;;5075707;28;20209;-70
2022/01/18 09:37:38;;;;;;;7.38;6.30;;;18.40;39.90;;;;;;5075690;28;20220;-68
2022/01/18 09:40:06;;;;;;;6.30;5.70;;;18.40;40.00;;;;;;5075537;28;20689;-71
2022/01/18 09:42:35;;;;;;;5.55;5.05;;;18.50;40.10;;;;;;5075041;28;20201;-68
2022/01/18 09:45:03;;;;;;;5.80;5.10;;;18.40;40.00;;;;;;5075475;28;20293;-67
2022/01/18 09:47:30;;;;;;;6.05;5.30;;;18.40;40.00;;;;;;5093529;28;20259;-67
2022/01/18 09:49:59;;;;;;;6.28;5.68;;;18.40;40.00;;;;;;5075473;28;20271;-70
2022/01/18 09:52:26;;;;;;;5.88;5.38;;;18.40;40.00;;;;;;5075298;28;20194;-70
2022/01/18 09:54:53;;;;;;;6.45;5.57;;;18.40;40.00;;;;;;5075152;28;20214;-67
2022/01/18 09:57:20;;;;;;;6.82;6.13;;;18.40;40.00;;;;;;5075331;28;20237;-68
2022/01/18 09:59:47;;;;;;;6.15;5.55;;;18.40;40.00;;;;;;5075031;28;20221;-70
2022/01/18 10:02:14;;;;;;;7.80;6.65;;;18.50;40.10;;;;;;5075247;28;20190;-68
2022/01/18 10:04:42;;;;;;;5.50;5.00;;;18.40;40.00;;;;;;5075306;28;20190;-67
2022/01/18 10:07:11;;;;;;;7.13;6.05;;;18.50;40.10;;;;;;5093312;28;20600;-70
2022/01/18 10:09:38;;;;;;;6.35;5.72;;;18.50;40.10;;;;;;5074919;28;20760;-70
2022/01/18 10:12:08;;;;;;;6.53;5.93;;;18.50;39.80;;;;;;5093428;28;20269;-68
2022/01/18 10:14:36;;;;;;;5.85;5.30;;;18.50;39.60;;;;;;5075218;28;20214;-68
2022/01/18 10:17:04;;;;;;;6.50;5.80;;;18.60;39.60;;;;;;5075064;28;20255;-66
2022/01/18 10:19:32;;;;;;;6.28;5.68;;;18.60;39.30;;;;;;5074959;28;20296;-66
2022/01/18 10:22:15;;;;;;;7.45;6.50;;;18.60;39.20;;;;;;5075015;28;20616;-70
2022/01/18 10:24:43;;;;;;;6.15;5.35;;;18.70;39.30;;;;;;5075101;28;20611;-71
2022/01/18 10:27:10;;;;;;;6.68;5.75;;;18.70;39.20;;;;;;5074922;28;20722;-68
2022/01/18 10:29:38;;;;;;;5.50;5.00;;;18.70;39.20;;;;;;5074767;28;20292;-68
2022/01/18 10:32:13;;;;;;;6.90;6.20;;;18.80;39.30;;;;;;5075014;28;20281;-68
2022/01/18 10:35:04;;;;;;;6.80;6.10;;;18.80;39.20;;;;;;5074601;28;20724;-68
2022/01/18 10:37:33;;;;;;;7.25;6.03;;;18.80;39.20;;;;;;5074625;28;20267;-68
2022/01/18 10:40:01;;;;;;;6.05;5.45;;;18.80;39.00;;;;;;5074525;28;20656;-67
2022/01/18 10:42:32;;;;;;;6.60;5.75;;;18.80;38.80;;;;;;5092959;28;20182;-70
2022/01/18 10:45:03;;;;;;;5.85;5.28;;;18.90;38.80;;;;;;5074653;28;20639;-70
2022/01/18 10:47:30;;;;;;;5.47;4.97;;;18.90;38.80;;;;;;5074710;28;20200;-69
2022/01/18 10:49:58;;;;;;;5.68;5.18;;;18.90;38.90;;;;;;5075033;28;20264;-69
2022/01/18 10:52:27;;;;;;;5.70;5.05;;;18.90;38.80;;;;;;5074729;28;20225;-68
2022/01/18 10:54:56;;;;;;;5.55;5.05;;;18.90;39.40;;;;;;5073776;28;20241;-67
2022/01/18 10:57:24;;;;;;;6.60;5.30;;;18.90;38.90;;;;;;5074381;28;20193;-70
2022/01/18 10:59:56;;;;;;;5.57;5.07;;;19.00;38.80;;;;;;5092706;28;20216;-70
2022/01/18 11:02:23;;;;;;;5.07;4.57;;;19.00;38.70;;;;;;5074790;28;20190;-66
2022/01/18 11:04:51;;;;;;;5.03;4.60;;;19.00;38.80;;;;;;5074843;28;20236;-68
2022/01/18 11:07:21;;;;;;;4.90;4.40;;;19.00;38.80;;;;;;5074529;28;20197;-68
2022/01/18 11:09:48;;;;;;;4.78;4.30;;;19.00;38.70;;;;;;5074500;28;20229;-67
2022/01/18 11:12:18;;;;;;;4.28;3.88;;;19.10;38.60;;;;;;5074662;28;20285;-69
2022/01/18 11:14:49;;;;;;;5.32;4.63;;;19.10;38.60;;;;;;5074809;28;20583;-69
2022/01/18 11:17:22;;;;;;;4.88;4.18;;;19.10;38.50;;;;;;5074629;28;20285;-68
2022/01/18 11:19:50;;;;;;;4.22;3.83;;;19.10;38.50;;;;;;5074883;28;20349;-68
2022/01/18 11:22:17;;;;;;;4.13;3.72;;;19.10;38.30;;;;;;5093139;28;20197;-68
2022/01/18 11:24:45;;;;;;;4.32;3.97;;;19.10;38.20;;;;;;5074775;28;20676;-68
2022/01/18 11:27:13;;;;;;;5.35;4.57;;;19.10;38.30;;;;;;5075064;28;20205;-68
2022/01/18 11:29:42;;;;;;;5.10;4.60;;;19.10;38.30;;;;;;5074826;28;20218;-68
2022/01/18 11:32:10;;;;;;;4.50;4.03;;;19.10;38.40;;;;;;5093213;28;20191;-68
2022/01/18 11:34:50;;;;;;;5.03;4.18;;;19.00;38.50;;;;;;5075331;28;20220;-69
2022/01/18 11:37:21;;;;;;;4.07;3.75;;;19.10;38.60;;;;;;5074970;28;20247;-68
2022/01/18 11:39:48;;;;;;;3.90;3.60;;;19.00;38.70;;;;;;5093001;28;20242;-70
2022/01/18 11:42:15;;;;;;;4.32;3.92;;;19.00;38.90;;;;;;5074058;28;20252;-70
2022/01/18 11:44:44;;;;;;;4.38;3.97;;;19.00;38.70;;;;;;5074560;28;20201;-67
2022/01/18 11:47:11;;;;;;;4.05;3.65;;;18.90;38.60;;;;;;5092710;28;20269;-68
2022/01/18 11:49:38;;;;;;;4.32;3.92;;;18.90;38.60;;;;;;5074605;28;20593;-70
2022/01/18 11:52:07;;;;;;;4.40;3.97;;;18.90;39.10;;;;;;5074219;28;20198;-68
2022/01/18 11:54:41;;;;;;;4.55;4.15;;;18.90;38.60;;;;;;5074578;28;20225;-68
2022/01/18 11:57:34;;;;;;;4.45;4.05;;;18.90;38.60;;;;;;5092263;28;20178;-68
2022/01/18 12:00:21;;;;;;;4.35;3.85;;;18.90;38.50;;;;;;5074206;28;20218;-68
2022/01/18 12:02:52;;;;;;;4.60;4.10;;;18.90;38.50;;;;;;5074452;28;20572;-67
2022/01/18 12:05:20;;;;;;;4.30;3.90;;;18.90;38.60;;;;;;5075920;28;20281;-67
2022/01/18 12:07:50;;;;;;;4.78;3.42;;;18.90;38.60;;;;;;5095980;28;20571;-69
2022/01/18 12:10:43;;;;;;;4.10;3.70;;;18.90;38.40;;;;;;5077835;28;20226;-70
2022/01/18 12:13:12;;;;;;;3.92;3.58;;;18.90;38.50;;;;;;5096116;28;20196;-70
2022/01/18 12:15:56;;;;;;;3.58;3.28;;;18.90;38.60;;;;;;5077791;28;20707;-69
2022/01/18 12:18:24;;;;;;;3.67;3.30;;;18.90;38.70;;;;;;5096056;28;20210;-70
2022/01/18 12:20:51;;;;;;;3.75;3.42;;;18.90;38.50;;;;;;5077926;28;20251;-67
2022/01/18 12:23:20;;;;;;;4.35;3.90;;;18.90;38.70;;;;;;5077400;28;20194;-69
2022/01/18 12:25:56;;;;;;;3.58;3.28;;;19.00;38.70;;;;;;5077333;28;20630;-67
2022/01/18 12:28:47;;;;;;;3.95;3.60;;;19.00;38.80;;;;;;5077279;28;20217;-67
2022/01/18 12:32:04;;;;;;;5.22;4.20;;;19.00;38.60;;;;;;5095707;28;20269;-68
2022/01/18 12:34:33;;;;;;;4.85;4.07;;;19.00;38.60;;;;;;5077868;28;20243;-66
2022/01/18 12:37:34;;;;;;;4.32;3.92;;;19.00;38.70;;;;;;5095593;28;20280;-68
2022/01/18 12:40:09;;;;;;;3.60;3.30;;;19.00;38.60;;;;;;5077187;28;20220;-70
2022/01/18 12:45:27;;;;;;;3.40;3.10;;;19.10;38.90;;;;;;5077259;28;20609;-68
2022/01/18 12:47:58;;;;;;;3.42;3.13;;;19.10;38.80;;;;;;5077104;28;20206;-69
2022/01/18 12:50:28;;;;;;;3.17;2.88;;;19.10;38.80;;;;;;5077128;28;20190;-69
2022/01/18 12:52:56;;;;;;;3.55;3.20;;;19.10;38.80;;;;;;5077132;28;20229;-70
2022/01/18 12:55:32;;;;;;;3.35;3.05;;;19.10;38.50;;;;;;5078804;28;20638;-70
2022/01/18 12:58:05;;;;;;;3.55;3.10;;;19.10;38.50;;;;;;5078370;28;20198;-71
2022/01/18 13:00:37;;;;;;;3.13;2.85;;;19.10;38.70;;;;;;5082665;28;20578;-70
2022/01/18 13:03:03;;;;;;;3.15;2.85;;;19.10;38.50;;;;;;5086360;28;20194;-68
2022/01/18 13:05:39;;;;;;;3.45;3.05;;;19.00;38.50;;;;;;5077718;28;20186;-68
2022/01/18 13:08:07;;;;;;;2.70;2.50;;;19.00;38.50;;;;;;5077268;28;20305;-67
2022/01/18 13:10:35;;;;;;;3.00;2.70;;;19.00;38.70;;;;;;5077132;28;20202;-70
2022/01/18 13:13:03;;;;;;;3.17;2.88;;;19.00;38.60;;;;;;5078909;28;20198;-69
2022/01/18 13:15:41;;;;;;;3.03;2.75;;;19.00;38.60;;;;;;5077190;28;20313;-66
2022/01/18 13:24:08;;;;;;;2.75;2.55;;;19.00;38.70;;;;;;5075908;28;20564;-69
2022/01/18 13:26:40;;;;;;;2.80;2.53;;;19.00;38.70;;;;;;5076786;28;20202;-70
2022/01/18 13:29:11;;;;;;;2.85;2.65;;;19.00;38.70;;;;;;5076611;28;20214;-71
2022/01/18 13:31:40;;;;;;;2.25;2.15;;;18.90;38.40;;;;;;5076435;28;20272;-69
2022/01/18 13:34:11;;;;;;;2.80;2.60;;;18.90;38.40;;;;;;5076620;28;20263;-70
2022/01/18 13:36:55;;;;;;;2.78;2.58;;;18.90;38.40;;;;;;5076597;28;20213;-70
2022/01/18 13:39:26;;;;;;;3.03;2.72;;;19.00;38.50;;;;;;5094682;28;20225;-70
2022/01/18 13:41:53;;;;;;;3.15;2.80;;;19.00;38.50;;;;;;5076326;28;20243;-68
2022/01/18 13:44:20;;;;;;;2.40;2.20;;;19.00;38.50;;;;;;5076163;28;20194;-70
2022/01/18 13:46:47;;;;;;;3.33;2.45;;;19.00;38.50;;;;;;5076340;28;20190;-68
2022/01/18 13:49:14;;;;;;;2.45;2.25;;;19.00;38.30;;;;;;5077575;28;20218;-67
2022/01/18 13:51:56;;;;;;;2.58;2.35;;;19.00;38.40;;;;;;5094119;28;20730;-70